sensor_id;sensor_type;location;lat;lon;timestamp;pressure;altitude;pressure_sealevel;temperature;humidity
54042;BME280;41156;51.508;5.406;2023-04-28T00:00:07;101215.41;;;9.53;71.96
54042;BME280;41156;51.508;5.406;2023-04-28T00:03:07;101200.03;;;9.47;72.79
54042;BME280;41156;51.508;5.406;2023-04-28T00:06:08;101208.50;;;9.44;74.27
54042;BME280;41156;51.508;5.406;2023-04-28T00:09:08;101200.59;;;9.42;76.78
54042;BME280;41156;51.508;5.406;2023-04-28T00:12:10;101202.69;;;9.40;77.51
54042;BME280;41156;51.508;5.406;2023-04-28T00:15:10;101201.84;;;9.40;75.78
54042;BME280;41156;51.508;5.406;2023-04-28T00:18:12;101191.06;;;9.40;76.24
54042;BME280;41156;51.508;5.406;2023-04-28T00:21:12;101178.81;;;9.37;77.14
54042;BME280;41156;51.508;5.406;2023-04-28T00:24:12;101176.53;;;9.34;77.93
54042;BME280;41156;51.508;5.406;2023-04-28T00:27:13;101180.63;;;9.30;79.84
54042;BME280;41156;51.508;5.406;2023-04-28T00:30:13;101191.56;;;9.22;80.93
54042;BME280;41156;51.508;5.406;2023-04-28T00:33:13;101180.94;;;9.14;83.17
54042;BME280;41156;51.508;5.406;2023-04-28T00:36:14;101168.25;;;9.07;84.33
54042;BME280;41156;51.508;5.406;2023-04-28T00:39:15;101150.63;;;9.05;89.28
54042;BME280;41156;51.508;5.406;2023-04-28T00:42:15;101140.59;;;8.99;94.32
54042;BME280;41156;51.508;5.406;2023-04-28T00:45:16;101143.41;;;8.84;97.47
54042;BME280;41156;51.508;5.406;2023-04-28T00:48:16;101141.25;;;8.73;99.97
54042;BME280;41156;51.508;5.406;2023-04-28T00:51:17;101142.03;;;8.66;100.00
54042;BME280;41156;51.508;5.406;2023-04-28T00:54:17;101132.47;;;8.64;100.00
54042;BME280;41156;51.508;5.406;2023-04-28T00:57:18;101127.84;;;8.51;100.00
54042;BME280;41156;51.508;5.406;2023-04-28T01:00:18;101123.41;;;8.43;100.00
54042;BME280;41156;51.508;5.406;2023-04-28T01:03:18;101119.59;;;8.38;100.00
54042;BME280;41156;51.508;5.406;2023-04-28T01:06:19;101124.78;;;8.39;100.00
54042;BME280;41156;51.508;5.406;2023-04-28T01:09:20;101121.88;;;8.41;100.00
54042;BME280;41156;51.508;5.406;2023-04-28T01:12:21;101114.66;;;8.41;100.00
54042;BME280;41156;51.508;5.406;2023-04-28T01:15:21;101128.31;;;8.40;100.00
54042;BME280;41156;51.508;5.406;2023-04-28T01:18:22;101114.94;;;8.46;100.00
54042;BME280;41156;51.508;5.406;2023-04-28T01:21:32;101100.16;;;8.42;100.00
54042;BME280;41156;51.508;5.406;2023-04-28T01:24:33;101086.06;;;8.40;100.00
54042;BME280;41156;51.508;5.406;2023-04-28T01:27:33;101084.38;;;8.39;100.00
54042;BME280;41156;51.508;5.406;2023-04-28T01:30:33;101092.25;;;8.41;100.00
54042;BME280;41156;51.508;5.406;2023-04-28T01:33:34;101087.56;;;8.43;100.00
54042;BME280;41156;51.508;5.406;2023-04-28T01:36:35;101093.50;;;8.38;100.00
54042;BME280;41156;51.508;5.406;2023-04-28T01:39:36;101083.75;;;8.37;100.00
54042;BME280;41156;51.508;5.406;2023-04-28T01:42:36;101075.84;;;8.36;100.00
54042;BME280;41156;51.508;5.406;2023-04-28T01:45:36;101075.84;;;8.36;100.00
54042;BME280;41156;51.508;5.406;2023-04-28T01:48:37;101075.91;;;8.42;100.00
54042;BME280;41156;51.508;5.406;2023-04-28T01:51:37;101071.22;;;8.44;100.00
54042;BME280;41156;51.508;5.406;2023-04-28T01:54:37;101078.44;;;8.44;100.00
54042;BME280;41156;51.508;5.406;2023-04-28T01:57:38;101061.06;;;8.46;100.00
54042;BME280;41156;51.508;5.406;2023-04-28T02:00:38;101071.47;;;8.49;100.00
54042;BME280;41156;51.508;5.406;2023-04-28T02:03:38;101067.09;;;8.48;100.00
54042;BME280;41156;51.508;5.406;2023-04-28T02:06:38;101061.91;;;8.47;100.00
54042;BME280;41156;51.508;5.406;2023-04-28T02:09:39;101071.84;;;8.46;100.00
54042;BME280;41156;51.508;5.406;2023-04-28T02:12:39;101068.53;;;8.44;100.00
54042;BME280;41156;51.508;5.406;2023-04-28T02:15:42;101070.19;;;8.45;100.00
54042;BME280;41156;51.508;5.406;2023-04-28T02:18:42;101051.69;;;8.42;100.00
54042;BME280;41156;51.508;5.406;2023-04-28T02:21:42;101050.50;;;8.45;100.00
54042;BME280;41156;51.508;5.406;2023-04-28T02:24:43;101052.41;;;8.51;100.00
54042;BME280;41156;51.508;5.406;2023-04-28T02:27:43;101042.91;;;8.55;100.00
54042;BME280;41156;51.508;5.406;2023-04-28T02:30:43;101033.09;;;8.47;100.00
54042;BME280;41156;51.508;5.406;2023-04-28T02:33:43;101022.13;;;8.49;100.00
54042;BME280;41156;51.508;5.406;2023-04-28T02:36:44;101009.72;;;8.48;100.00
54042;BME280;41156;51.508;5.406;2023-04-28T02:39:44;100992.44;;;8.42;100.00
54042;BME280;41156;51.508;5.406;2023-04-28T02:42:45;100980.91;;;8.48;100.00
54042;BME280;41156;51.508;5.406;2023-04-28T02:45:45;100969.13;;;8.49;100.00
54042;BME280;41156;51.508;5.406;2023-04-28T02:48:46;100976.53;;;8.47;100.00
54042;BME280;41156;51.508;5.406;2023-04-28T02:51:46;100947.53;;;8.43;100.00
54042;BME280;41156;51.508;5.406;2023-04-28T02:54:46;100951.06;;;8.43;100.00
54042;BME280;41156;51.508;5.406;2023-04-28T02:57:48;100973.22;;;8.45;100.00
54042;BME280;41156;51.508;5.406;2023-04-28T03:00:48;100976.16;;;8.50;100.00
54042;BME280;41156;51.508;5.406;2023-04-28T03:03:48;100974.31;;;8.51;100.00
54042;BME280;41156;51.508;5.406;2023-04-28T03:06:49;100974.94;;;8.53;100.00
54042;BME280;41156;51.508;5.406;2023-04-28T03:09:49;100972.88;;;8.55;100.00
54042;BME280;41156;51.508;5.406;2023-04-28T03:12:49;100968.13;;;8.57;100.00
54042;BME280;41156;51.508;5.406;2023-04-28T03:15:49;100974.59;;;8.63;100.00
54042;BME280;41156;51.508;5.406;2023-04-28T03:18:51;100966.31;;;8.64;100.00
54042;BME280;41156;51.508;5.406;2023-04-28T03:21:51;100966.06;;;8.66;100.00
54042;BME280;41156;51.508;5.406;2023-04-28T03:24:51;100972.13;;;8.68;100.00
54042;BME280;41156;51.508;5.406;2023-04-28T03:27:52;100971.94;;;8.69;100.00
54042;BME280;41156;51.508;5.406;2023-04-28T03:30:52;100975.44;;;8.70;100.00
54042;BME280;41156;51.508;5.406;2023-04-28T03:33:52;100979.59;;;8.73;100.00
54042;BME280;41156;51.508;5.406;2023-04-28T03:36:52;100968.59;;;8.74;100.00
54042;BME280;41156;51.508;5.406;2023-04-28T03:39:53;100958.69;;;8.75;100.00
54042;BME280;41156;51.508;5.406;2023-04-28T03:42:53;100955.13;;;8.74;100.00
54042;BME280;41156;51.508;5.406;2023-04-28T03:45:53;100956.16;;;8.66;100.00
54042;BME280;41156;51.508;5.406;2023-04-28T03:48:53;100955.31;;;8.66;100.00
54042;BME280;41156;51.508;5.406;2023-04-28T03:51:54;100958.47;;;8.69;100.00
54042;BME280;41156;51.508;5.406;2023-04-28T03:54:54;100944.78;;;8.71;100.00
54042;BME280;41156;51.508;5.406;2023-04-28T03:57:54;100940.22;;;8.72;100.00
54042;BME280;41156;51.508;5.406;2023-04-28T04:00:55;100936.47;;;8.73;100.00
54042;BME280;41156;51.508;5.406;2023-04-28T04:03:55;100938.97;;;8.74;100.00
54042;BME280;41156;51.508;5.406;2023-04-28T04:06:55;100929.88;;;8.75;100.00
54042;BME280;41156;51.508;5.406;2023-04-28T04:09:56;100935.88;;;8.77;100.00
54042;BME280;41156;51.508;5.406;2023-04-28T04:12:56;100937.34;;;8.80;100.00
54042;BME280;41156;51.508;5.406;2023-04-28T04:15:56;100929.06;;;8.81;100.00
54042;BME280;41156;51.508;5.406;2023-04-28T04:18:56;100941.94;;;8.86;100.00
54042;BME280;41156;51.508;5.406;2023-04-28T04:21:57;100938.22;;;8.87;100.00
54042;BME280;41156;51.508;5.406;2023-04-28T04:24:57;100942.38;;;8.89;100.00
54042;BME280;41156;51.508;5.406;2023-04-28T04:27:58;100939.47;;;8.91;100.00
54042;BME280;41156;51.508;5.406;2023-04-28T04:30:58;100936.59;;;8.93;100.00
54042;BME280;41156;51.508;5.406;2023-04-28T04:33:58;100936.16;;;8.96;100.00
54042;BME280;41156;51.508;5.406;2023-04-28T04:36:59;100929.13;;;8.95;100.00
54042;BME280;41156;51.508;5.406;2023-04-28T04:39:59;100921.88;;;8.95;100.00
54042;BME280;41156;51.508;5.406;2023-04-28T04:43:00;100915.25;;;8.98;100.00
54042;BME280;41156;51.508;5.406;2023-04-28T04:46:00;100905.50;;;8.97;100.00
54042;BME280;41156;51.508;5.406;2023-04-28T04:49:02;100904.03;;;9.01;100.00
54042;BME280;41156;51.508;5.406;2023-04-28T04:52:03;100899.69;;;9.00;100.00
54042;BME280;41156;51.508;5.406;2023-04-28T04:55:04;100890.56;;;9.01;100.00
54042;BME280;41156;51.508;5.406;2023-04-28T04:58:04;100889.53;;;9.02;100.00
54042;BME280;41156;51.508;5.406;2023-04-28T05:01:04;100895.16;;;9.07;100.00
54042;BME280;41156;51.508;5.406;2023-04-28T05:04:05;100894.75;;;9.10;100.00
54042;BME280;41156;51.508;5.406;2023-04-28T05:07:06;100898.69;;;9.14;100.00
54042;BME280;41156;51.508;5.406;2023-04-28T05:10:07;100897.25;;;9.18;100.00
54042;BME280;41156;51.508;5.406;2023-04-28T05:13:07;100903.69;;;9.24;100.00
54042;BME280;41156;51.508;5.406;2023-04-28T05:16:07;100888.56;;;9.30;100.00
54042;BME280;41156;51.508;5.406;2023-04-28T05:19:08;100885.03;;;9.36;100.00
54042;BME280;41156;51.508;5.406;2023-04-28T05:22:08;100889.00;;;9.40;100.00
54042;BME280;41156;51.508;5.406;2023-04-28T05:25:08;100897.69;;;9.42;100.00
54042;BME280;41156;51.508;5.406;2023-04-28T05:28:09;100895.63;;;9.44;100.00
54042;BME280;41156;51.508;5.406;2023-04-28T05:31:09;100906.22;;;9.52;100.00
54042;BME280;41156;51.508;5.406;2023-04-28T05:34:10;100901.88;;;9.51;100.00
54042;BME280;41156;51.508;5.406;2023-04-28T05:37:10;100899.78;;;9.53;100.00
54042;BME280;41156;51.508;5.406;2023-04-28T05:40:10;100897.91;;;9.54;100.00
54042;BME280;41156;51.508;5.406;2023-04-28T05:43:11;100898.31;;;9.57;100.00
54042;BME280;41156;51.508;5.406;2023-04-28T05:46:11;100889.81;;;9.60;100.00
54042;BME280;41156;51.508;5.406;2023-04-28T05:49:12;100892.72;;;9.66;100.00
54042;BME280;41156;51.508;5.406;2023-04-28T05:52:12;100903.97;;;9.76;100.00
54042;BME280;41156;51.508;5.406;2023-04-28T05:55:13;100897.28;;;9.85;100.00
54042;BME280;41156;51.508;5.406;2023-04-28T05:58:13;100890.66;;;9.94;100.00
54042;BME280;41156;51.508;5.406;2023-04-28T06:01:13;100886.06;;;10.02;100.00
54042;BME280;41156;51.508;5.406;2023-04-28T06:04:14;100884.81;;;10.11;100.00
54042;BME280;41156;51.508;5.406;2023-04-28T06:07:14;100879.41;;;10.17;100.00
54042;BME280;41156;51.508;5.406;2023-04-28T06:10:14;100890.59;;;10.21;100.00
54042;BME280;41156;51.508;5.406;2023-04-28T06:13:15;100892.03;;;10.30;100.00
54042;BME280;41156;51.508;5.406;2023-04-28T06:16:16;100878.94;;;10.41;100.00
54042;BME280;41156;51.508;5.406;2023-04-28T06:19:17;100878.28;;;10.52;100.00
54042;BME280;41156;51.508;5.406;2023-04-28T06:22:20;100885.53;;;10.58;100.00
54042;BME280;41156;51.508;5.406;2023-04-28T06:25:20;100880.31;;;10.63;100.00
54042;BME280;41156;51.508;5.406;2023-04-28T06:28:20;100878.19;;;10.72;100.00
54042;BME280;41156;51.508;5.406;2023-04-28T06:31:21;100884.59;;;10.84;100.00
54042;BME280;41156;51.508;5.406;2023-04-28T06:34:21;100882.06;;;10.89;100.00
54042;BME280;41156;51.508;5.406;2023-04-28T06:37:21;100881.81;;;10.98;100.00
54042;BME280;41156;51.508;5.406;2023-04-28T06:40:21;100871.41;;;11.01;100.00
54042;BME280;41156;51.508;5.406;2023-04-28T06:43:22;100882.81;;;11.03;100.00
54042;BME280;41156;51.508;5.406;2023-04-28T06:46:22;100884.50;;;11.04;100.00
54042;BME280;41156;51.508;5.406;2023-04-28T06:49:23;100879.09;;;11.04;100.00
54042;BME280;41156;51.508;5.406;2023-04-28T06:52:23;100875.31;;;11.05;100.00
54042;BME280;41156;51.508;5.406;2023-04-28T06:55:23;100869.91;;;11.05;100.00
54042;BME280;41156;51.508;5.406;2023-04-28T06:58:24;100859.25;;;11.10;100.00
54042;BME280;41156;51.508;5.406;2023-04-28T07:01:24;100862.59;;;11.13;100.00
54042;BME280;41156;51.508;5.406;2023-04-28T07:04:25;100862.13;;;11.16;100.00
54042;BME280;41156;51.508;5.406;2023-04-28T07:07:26;100863.59;;;11.18;100.00
54042;BME280;41156;51.508;5.406;2023-04-28T07:10:26;100863.38;;;11.20;100.00
54042;BME280;41156;51.508;5.406;2023-04-28T07:13:26;100858.53;;;11.28;100.00
54042;BME280;41156;51.508;5.406;2023-04-28T07:16:27;100860.53;;;11.40;100.00
54042;BME280;41156;51.508;5.406;2023-04-28T07:19:27;100858.53;;;11.54;100.00
54042;BME280;41156;51.508;5.406;2023-04-28T07:22:27;100853.69;;;11.62;100.00
54042;BME280;41156;51.508;5.406;2023-04-28T07:25:28;100856.72;;;11.73;100.00
54042;BME280;41156;51.508;5.406;2023-04-28T07:28:28;100862.28;;;11.78;100.00
54042;BME280;41156;51.508;5.406;2023-04-28T07:31:28;100864.16;;;11.77;100.00
54042;BME280;41156;51.508;5.406;2023-04-28T07:34:28;100866.56;;;11.85;100.00
54042;BME280;41156;51.508;5.406;2023-04-28T07:37:29;100874.66;;;11.92;100.00
54042;BME280;41156;51.508;5.406;2023-04-28T07:40:29;100876.72;;;11.97;100.00
54042;BME280;41156;51.508;5.406;2023-04-28T07:43:29;100875.81;;;12.03;100.00
54042;BME280;41156;51.508;5.406;2023-04-28T07:46:30;100869.38;;;12.04;100.00
54042;BME280;41156;51.508;5.406;2023-04-28T07:49:30;100876.44;;;12.05;100.00
54042;BME280;41156;51.508;5.406;2023-04-28T07:52:31;100873.50;;;12.07;100.00
54042;BME280;41156;51.508;5.406;2023-04-28T07:55:33;100873.50;;;12.07;100.00
54042;BME280;41156;51.508;5.406;2023-04-28T07:58:33;100869.13;;;12.06;100.00
54042;BME280;41156;51.508;5.406;2023-04-28T08:01:35;100877.25;;;12.06;100.00
54042;BME280;41156;51.508;5.406;2023-04-28T08:04:35;100874.53;;;12.06;100.00
54042;BME280;41156;51.508;5.406;2023-04-28T08:07:36;100870.13;;;12.11;100.00
54042;BME280;41156;51.508;5.406;2023-04-28T08:10:36;100877.81;;;12.14;100.00
54042;BME280;41156;51.508;5.406;2023-04-28T08:13:40;100869.69;;;12.14;100.00
54042;BME280;41156;51.508;5.406;2023-04-28T08:16:41;100877.50;;;12.23;100.00
54042;BME280;41156;51.508;5.406;2023-04-28T08:19:41;100865.59;;;12.24;100.00
54042;BME280;41156;51.508;5.406;2023-04-28T08:22:44;100874.09;;;12.27;100.00
54042;BME280;41156;51.508;5.406;2023-04-28T08:25:45;100874.50;;;12.31;100.00
54042;BME280;41156;51.508;5.406;2023-04-28T08:28:46;100876.28;;;12.37;100.00
54042;BME280;41156;51.508;5.406;2023-04-28T08:31:46;100877.50;;;12.41;100.00
54042;BME280;41156;51.508;5.406;2023-04-28T08:34:47;100879.06;;;12.49;100.00
54042;BME280;41156;51.508;5.406;2023-04-28T08:37:47;100879.13;;;12.61;100.00
54042;BME280;41156;51.508;5.406;2023-04-28T08:40:48;100874.69;;;12.66;100.00
54042;BME280;41156;51.508;5.406;2023-04-28T08:43:48;100877.91;;;12.75;100.00
54042;BME280;41156;51.508;5.406;2023-04-28T08:46:53;100875.34;;;12.80;100.00
54042;BME280;41156;51.508;5.406;2023-04-28T08:49:56;100874.06;;;12.83;100.00
54042;BME280;41156;51.508;5.406;2023-04-28T08:53:03;100874.91;;;12.83;100.00
54042;BME280;41156;51.508;5.406;2023-04-28T08:56:05;100875.63;;;12.90;100.00
54042;BME280;41156;51.508;5.406;2023-04-28T08:59:06;100878.00;;;12.99;100.00
54042;BME280;41156;51.508;5.406;2023-04-28T09:02:10;100887.13;;;13.04;100.00
54042;BME280;41156;51.508;5.406;2023-04-28T09:05:11;100882.06;;;13.08;100.00
54042;BME280;41156;51.508;5.406;2023-04-28T09:08:12;100883.03;;;13.13;100.00
54042;BME280;41156;51.508;5.406;2023-04-28T09:11:13;100879.75;;;13.23;100.00
54042;BME280;41156;51.508;5.406;2023-04-28T09:14:13;100873.19;;;13.31;100.00
54042;BME280;41156;51.508;5.406;2023-04-28T09:17:14;100877.47;;;13.39;100.00
54042;BME280;41156;51.508;5.406;2023-04-28T09:20:22;100876.19;;;13.53;100.00
54042;BME280;41156;51.508;5.406;2023-04-28T09:23:23;100878.34;;;13.63;100.00
54042;BME280;41156;51.508;5.406;2023-04-28T09:26:23;100879.41;;;13.74;100.00
54042;BME280;41156;51.508;5.406;2023-04-28T09:29:24;100880.72;;;13.83;100.00
54042;BME280;41156;51.508;5.406;2023-04-28T09:32:24;100872.69;;;13.88;100.00
54042;BME280;41156;51.508;5.406;2023-04-28T09:35:38;100882.72;;;13.87;100.00
54042;BME280;41156;51.508;5.406;2023-04-28T09:38:43;100884.13;;;13.90;100.00
54042;BME280;41156;51.508;5.406;2023-04-28T09:41:45;100883.91;;;13.92;100.00
54042;BME280;41156;51.508;5.406;2023-04-28T09:44:52;100882.00;;;13.92;100.00
54042;BME280;41156;51.508;5.406;2023-04-28T09:48:08;100887.09;;;13.88;100.00
54042;BME280;41156;51.508;5.406;2023-04-28T09:51:08;100895.47;;;13.87;100.00
54042;BME280;41156;51.508;5.406;2023-04-28T09:54:09;100889.09;;;13.81;100.00
54042;BME280;41156;51.508;5.406;2023-04-28T09:57:10;100888.50;;;13.79;100.00
54042;BME280;41156;51.508;5.406;2023-04-28T10:00:11;100887.66;;;13.79;100.00
54042;BME280;41156;51.508;5.406;2023-04-28T10:03:13;100893.94;;;13.79;100.00
54042;BME280;41156;51.508;5.406;2023-04-28T10:06:14;100890.25;;;13.74;100.00
54042;BME280;41156;51.508;5.406;2023-04-28T10:09:15;100894.88;;;13.73;100.00
54042;BME280;41156;51.508;5.406;2023-04-28T10:12:17;100888.16;;;13.76;100.00
54042;BME280;41156;51.508;5.406;2023-04-28T10:15:18;100887.94;;;13.77;100.00
54042;BME280;41156;51.508;5.406;2023-04-28T10:18:21;100891.13;;;13.86;100.00
54042;BME280;41156;51.508;5.406;2023-04-28T10:21:22;100882.97;;;13.98;100.00
54042;BME280;41156;51.508;5.406;2023-04-28T10:24:28;100885.56;;;14.04;100.00
54042;BME280;41156;51.508;5.406;2023-04-28T10:27:33;100881.28;;;14.09;100.00
54042;BME280;41156;51.508;5.406;2023-04-28T10:30:35;100885.69;;;14.10;100.00
54042;BME280;41156;51.508;5.406;2023-04-28T10:33:37;100885.31;;;14.06;100.00
54042;BME280;41156;51.508;5.406;2023-04-28T10:36:48;100888.63;;;14.08;100.00
54042;BME280;41156;51.508;5.406;2023-04-28T10:40:32;100884.13;;;14.14;100.00
54042;BME280;41156;51.508;5.406;2023-04-28T10:43:35;100886.00;;;14.25;100.00
54042;BME280;41156;51.508;5.406;2023-04-28T10:47:02;100880.31;;;14.38;100.00
54042;BME280;41156;51.508;5.406;2023-04-28T10:50:05;100880.03;;;14.52;100.00
54042;BME280;41156;51.508;5.406;2023-04-28T10:53:05;100872.59;;;14.71;100.00
54042;BME280;41156;51.508;5.406;2023-04-28T10:56:06;100878.22;;;14.81;100.00
54042;BME280;41156;51.508;5.406;2023-04-28T10:59:25;100870.84;;;14.93;100.00
54042;BME280;41156;51.508;5.406;2023-04-28T11:02:35;100864.53;;;15.05;100.00
54042;BME280;41156;51.508;5.406;2023-04-28T11:05:37;100862.81;;;15.15;100.00
54042;BME280;41156;51.508;5.406;2023-04-28T11:08:38;100857.63;;;15.31;100.00
54042;BME280;41156;51.508;5.406;2023-04-28T11:11:39;100862.09;;;15.37;100.00
54042;BME280;41156;51.508;5.406;2023-04-28T11:15:10;100852.03;;;15.38;100.00
54042;BME280;41156;51.508;5.406;2023-04-28T11:18:14;100850.44;;;15.42;100.00
54042;BME280;41156;51.508;5.406;2023-04-28T11:21:20;100854.69;;;15.49;100.00
54042;BME280;41156;51.508;5.406;2023-04-28T11:24:22;100852.94;;;15.60;100.00
54042;BME280;41156;51.508;5.406;2023-04-28T11:27:25;100858.44;;;15.65;100.00
54042;BME280;41156;51.508;5.406;2023-04-28T11:30:26;100857.16;;;15.68;100.00
54042;BME280;41156;51.508;5.406;2023-04-28T11:33:28;100860.13;;;15.66;100.00
54042;BME280;41156;51.508;5.406;2023-04-28T11:36:34;100856.16;;;15.57;100.00
54042;BME280;41156;51.508;5.406;2023-04-28T11:39:34;100848.34;;;15.44;100.00
54042;BME280;41156;51.508;5.406;2023-04-28T11:42:46;100848.75;;;15.35;100.00
54042;BME280;41156;51.508;5.406;2023-04-28T11:45:46;100859.88;;;15.34;100.00
54042;BME280;41156;51.508;5.406;2023-04-28T11:48:47;100864.16;;;15.30;100.00
54042;BME280;41156;51.508;5.406;2023-04-28T11:51:47;100860.84;;;15.28;100.00
54042;BME280;41156;51.508;5.406;2023-04-28T11:54:56;100874.63;;;15.21;100.00
54042;BME280;41156;51.508;5.406;2023-04-28T11:58:20;100874.47;;;15.28;100.00
54042;BME280;41156;51.508;5.406;2023-04-28T12:01:22;100879.72;;;15.17;100.00
54042;BME280;41156;51.508;5.406;2023-04-28T12:04:42;100880.22;;;15.14;100.00
54042;BME280;41156;51.508;5.406;2023-04-28T12:07:43;100878.47;;;15.08;100.00
54042;BME280;41156;51.508;5.406;2023-04-28T12:11:07;100886.78;;;15.02;100.00
54042;BME280;41156;51.508;5.406;2023-04-28T12:14:08;100875.88;;;15.02;100.00
54042;BME280;41156;51.508;5.406;2023-04-28T12:17:31;100874.84;;;15.20;100.00
54042;BME280;41156;51.508;5.406;2023-04-28T12:20:38;100883.13;;;15.25;100.00
54042;BME280;41156;51.508;5.406;2023-04-28T12:23:38;100891.19;;;15.20;100.00
54042;BME280;41156;51.508;5.406;2023-04-28T12:26:41;100893.31;;;15.01;100.00
54042;BME280;41156;51.508;5.406;2023-04-28T12:29:42;100901.47;;;14.89;100.00
54042;BME280;41156;51.508;5.406;2023-04-28T12:32:45;100899.50;;;14.84;100.00
54042;BME280;41156;51.508;5.406;2023-04-28T12:35:45;100914.97;;;14.84;100.00
54042;BME280;41156;51.508;5.406;2023-04-28T12:38:47;100912.16;;;14.78;100.00
54042;BME280;41156;51.508;5.406;2023-04-28T12:41:48;100916.44;;;14.74;100.00
54042;BME280;41156;51.508;5.406;2023-04-28T12:44:48;100924.28;;;14.71;100.00
54042;BME280;41156;51.508;5.406;2023-04-28T12:47:49;100928.28;;;14.68;100.00
54042;BME280;41156;51.508;5.406;2023-04-28T12:50:49;100925.94;;;14.60;100.00
54042;BME280;41156;51.508;5.406;2023-04-28T12:53:50;100924.28;;;14.47;100.00
54042;BME280;41156;51.508;5.406;2023-04-28T12:56:50;100931.84;;;14.33;100.00
54042;BME280;41156;51.508;5.406;2023-04-28T12:59:51;100939.44;;;14.19;100.00
54042;BME280;41156;51.508;5.406;2023-04-28T13:02:51;100932.91;;;14.09;100.00
54042;BME280;41156;51.508;5.406;2023-04-28T13:05:52;100935.75;;;14.02;100.00
54042;BME280;41156;51.508;5.406;2023-04-28T13:08:52;100948.53;;;14.01;100.00
54042;BME280;41156;51.508;5.406;2023-04-28T13:11:52;100947.34;;;13.97;100.00
54042;BME280;41156;51.508;5.406;2023-04-28T13:14:53;100938.34;;;13.97;100.00
54042;BME280;41156;51.508;5.406;2023-04-28T13:17:53;100933.88;;;14.14;100.00
54042;BME280;41156;51.508;5.406;2023-04-28T13:20:54;100943.31;;;14.47;100.00
54042;BME280;41156;51.508;5.406;2023-04-28T13:23:55;100948.25;;;14.86;100.00
54042;BME280;41156;51.508;5.406;2023-04-28T13:26:55;100939.03;;;15.15;100.00
54042;BME280;41156;51.508;5.406;2023-04-28T13:29:57;100946.06;;;15.28;100.00
54042;BME280;41156;51.508;5.406;2023-04-28T13:32:58;100941.69;;;15.27;100.00
54042;BME280;41156;51.508;5.406;2023-04-28T13:35:59;100951.16;;;15.25;100.00
54042;BME280;41156;51.508;5.406;2023-04-28T13:38:59;100937.56;;;15.25;100.00
54042;BME280;41156;51.508;5.406;2023-04-28T13:42:00;100946.75;;;15.35;100.00
54042;BME280;41156;51.508;5.406;2023-04-28T13:45:00;100948.31;;;15.48;100.00
54042;BME280;41156;51.508;5.406;2023-04-28T13:48:01;100938.69;;;15.58;100.00
54042;BME280;41156;51.508;5.406;2023-04-28T13:51:02;100946.66;;;15.76;100.00
54042;BME280;41156;51.508;5.406;2023-04-28T13:54:03;100935.69;;;15.88;100.00
54042;BME280;41156;51.508;5.406;2023-04-28T13:57:07;100941.53;;;15.97;100.00
54042;BME280;41156;51.508;5.406;2023-04-28T14:00:07;100942.78;;;16.06;100.00
54042;BME280;41156;51.508;5.406;2023-04-28T14:03:08;100942.38;;;16.14;100.00
54042;BME280;41156;51.508;5.406;2023-04-28T14:06:08;100941.25;;;16.15;100.00
54042;BME280;41156;51.508;5.406;2023-04-28T14:09:08;100944.75;;;16.11;100.00
54042;BME280;41156;51.508;5.406;2023-04-28T14:12:09;100943.59;;;15.89;100.00
54042;BME280;41156;51.508;5.406;2023-04-28T14:15:10;100956.09;;;15.57;100.00
54042;BME280;41156;51.508;5.406;2023-04-28T14:18:11;100970.22;;;15.25;100.00
54042;BME280;41156;51.508;5.406;2023-04-28T14:21:12;100960.09;;;15.08;100.00
54042;BME280;41156;51.508;5.406;2023-04-28T14:24:12;100969.25;;;15.02;100.00
54042;BME280;41156;51.508;5.406;2023-04-28T14:27:13;100971.13;;;15.02;100.00
54042;BME280;41156;51.508;5.406;2023-04-28T14:30:15;100969.25;;;15.02;100.00
54042;BME280;41156;51.508;5.406;2023-04-28T14:33:16;100976.81;;;15.00;100.00
54042;BME280;41156;51.508;5.406;2023-04-28T14:36:16;100973.59;;;15.03;100.00
54042;BME280;41156;51.508;5.406;2023-04-28T14:39:16;100971.63;;;14.87;100.00
54042;BME280;41156;51.508;5.406;2023-04-28T14:42:17;100973.34;;;14.76;100.00
54042;BME280;41156;51.508;5.406;2023-04-28T14:45:19;100967.78;;;14.71;100.00
54042;BME280;41156;51.508;5.406;2023-04-28T14:48:19;100970.28;;;14.72;100.00
54042;BME280;41156;51.508;5.406;2023-04-28T14:51:19;100971.44;;;14.76;100.00
54042;BME280;41156;51.508;5.406;2023-04-28T14:54:20;100974.38;;;14.87;100.00
54042;BME280;41156;51.508;5.406;2023-04-28T14:57:22;100977.78;;;14.94;100.00
54042;BME280;41156;51.508;5.406;2023-04-28T15:00:22;100971.69;;;15.04;100.00
54042;BME280;41156;51.508;5.406;2023-04-28T15:03:22;100970.38;;;15.18;100.00
54042;BME280;41156;51.508;5.406;2023-04-28T15:06:23;100980.91;;;15.14;100.00
54042;BME280;41156;51.508;5.406;2023-04-28T15:09:23;100976.00;;;15.28;100.00
54042;BME280;41156;51.508;5.406;2023-04-28T15:12:23;100972.41;;;15.40;100.00
54042;BME280;41156;51.508;5.406;2023-04-28T15:15:24;100966.09;;;15.51;100.00
54042;BME280;41156;51.508;5.406;2023-04-28T15:18:24;100962.97;;;15.59;100.00
54042;BME280;41156;51.508;5.406;2023-04-28T15:21:25;100963.38;;;15.68;100.00
54042;BME280;41156;51.508;5.406;2023-04-28T15:24:27;100962.81;;;15.66;100.00
54042;BME280;41156;51.508;5.406;2023-04-28T15:27:27;100963.53;;;15.61;100.00
54042;BME280;41156;51.508;5.406;2023-04-28T15:30:27;100978.72;;;15.57;100.00
54042;BME280;41156;51.508;5.406;2023-04-28T15:33:28;100977.22;;;15.49;100.00
54042;BME280;41156;51.508;5.406;2023-04-28T15:36:28;100979.03;;;15.44;100.00
54042;BME280;41156;51.508;5.406;2023-04-28T15:39:28;100972.88;;;15.36;100.00
54042;BME280;41156;51.508;5.406;2023-04-28T15:42:29;100973.75;;;15.37;100.00